Time;durP1;ratioP1;P1;durP2;ratioP2;P2;SDS_P1;SDS_P2;PMS_P1;PMS_P2;Temp;Humidity;BMP_temperature;BMP_pressure;BME280_temperature;BME280_humidity;BME280_pressure;Samples;Min_cycle;Max_cycle;Signal;HPM_P1;HPM_P2
2020/12/27 00:00:40;;;;;;;2.60;1.33;;;8.90;63.40;;;;;;5035345;28;20068;-72
2020/12/27 00:03:06;;;;;;;3.10;1.20;;;8.80;63.00;;;;;;5035610;28;20029;-70
2020/12/27 00:05:33;;;;;;;3.00;1.48;;;8.80;63.30;;;;;;5035631;28;20462;-71
2020/12/27 00:07:59;;;;;;;2.88;1.30;;;8.70;63.50;;;;;;5035452;28;20026;-70
2020/12/27 00:10:24;;;;;;;3.03;1.50;;;8.70;63.40;;;;;;5035125;28;20039;-71
2020/12/27 00:12:50;;;;;;;2.45;1.30;;;8.70;63.70;;;;;;5035335;28;20052;-70
2020/12/27 00:15:16;;;;;;;3.78;1.45;;;8.60;63.70;;;;;;5035069;28;20029;-71
2020/12/27 00:17:43;;;;;;;3.05;1.30;;;8.60;63.80;;;;;;5017275;28;20079;-71
2020/12/27 00:20:09;;;;;;;3.58;1.60;;;8.60;64.10;;;;;;5034845;28;20061;-71
2020/12/27 00:22:34;;;;;;;1.95;1.20;;;8.60;64.00;;;;;;5035147;28;20047;-69
2020/12/27 00:25:00;;;;;;;1.80;1.10;;;8.60;64.00;;;;;;5035227;28;20032;-70
2020/12/27 00:27:26;;;;;;;2.15;1.20;;;8.50;63.80;;;;;;5034995;28;20024;-71
2020/12/27 00:29:52;;;;;;;1.98;1.20;;;8.60;63.80;;;;;;5034789;28;20375;-69
2020/12/27 00:32:18;;;;;;;2.63;1.20;;;8.60;63.90;;;;;;5017007;28;20091;-72
2020/12/27 00:34:43;;;;;;;2.30;1.20;;;8.50;63.50;;;;;;5035127;28;20053;-71
2020/12/27 00:37:09;;;;;;;2.63;1.30;;;8.50;63.80;;;;;;5034586;28;20025;-71
2020/12/27 00:39:35;;;;;;;2.70;1.45;;;8.50;63.80;;;;;;5034562;28;20026;-71
2020/12/27 00:42:02;;;;;;;2.95;1.60;;;8.50;63.70;;;;;;5033370;28;20029;-71
2020/12/27 00:44:28;;;;;;;3.20;1.30;;;8.40;63.80;;;;;;5034699;28;20053;-71
2020/12/27 00:46:56;;;;;;;3.13;1.50;;;8.30;64.00;;;;;;5034455;28;20022;-69
2020/12/27 00:49:22;;;;;;;3.42;1.38;;;8.40;64.00;;;;;;5034490;28;20080;-71
2020/12/27 00:51:49;;;;;;;3.20;1.50;;;8.40;64.00;;;;;;5034428;28;20021;-70
2020/12/27 00:54:15;;;;;;;2.33;1.35;;;8.40;63.90;;;;;;5034230;28;20040;-70
2020/12/27 00:56:40;;;;;;;2.30;1.30;;;8.40;64.10;;;;;;5034582;28;20029;-71
2020/12/27 00:59:06;;;;;;;3.10;1.48;;;8.40;63.80;;;;;;5034297;28;20041;-71
2020/12/27 01:01:33;;;;;;;2.05;1.15;;;8.60;63.80;;;;;;5032334;28;20163;-71
2020/12/27 01:03:58;;;;;;;2.55;1.50;;;8.60;63.10;;;;;;5034278;28;20109;-70
2020/12/27 01:06:25;;;;;;;3.70;1.30;;;8.70;63.50;;;;;;5034146;28;20474;-71
2020/12/27 01:08:52;;;;;;;3.58;1.30;;;8.70;63.30;;;;;;5034200;28;20025;-70
2020/12/27 01:11:18;;;;;;;2.47;1.30;;;8.70;63.10;;;;;;5034514;28;20026;-69
2020/12/27 01:13:44;;;;;;;2.00;1.20;;;8.70;62.70;;;;;;5034220;28;20017;-70
2020/12/27 01:16:11;;;;;;;3.05;1.30;;;8.70;62.90;;;;;;5034135;28;20105;-71
2020/12/27 01:18:44;;;;;;;3.40;1.85;;;8.70;62.80;;;;;;5034011;28;20087;-69
2020/12/27 01:21:09;;;;;;;1.40;1.00;;;8.70;62.80;;;;;;5033724;28;20033;-71
2020/12/27 01:23:35;;;;;;;2.67;1.35;;;8.80;62.60;;;;;;5034102;28;20041;-71
2020/12/27 01:26:01;;;;;;;3.13;1.40;;;8.90;62.50;;;;;;5034255;28;20026;-72
2020/12/27 01:28:26;;;;;;;2.70;1.20;;;8.80;62.70;;;;;;5033790;28;20056;-71
2020/12/27 01:30:52;;;;;;;2.13;1.08;;;8.80;62.70;;;;;;5034003;28;20029;-70
2020/12/27 01:33:18;;;;;;;2.58;1.20;;;8.80;62.40;;;;;;5033767;28;20105;-71
2020/12/27 01:35:45;;;;;;;2.30;1.20;;;8.80;62.70;;;;;;5032370;28;20430;-71
2020/12/27 01:38:11;;;;;;;2.03;1.20;;;8.80;62.70;;;;;;5033595;28;20037;-70
2020/12/27 01:40:37;;;;;;;3.15;1.23;;;8.70;62.80;;;;;;5033748;28;20109;-69
2020/12/27 01:43:03;;;;;;;2.00;1.17;;;8.70;63.00;;;;;;5033699;28;20478;-71
2020/12/27 01:45:29;;;;;;;2.42;1.10;;;8.50;62.90;;;;;;5034342;28;20482;-70
2020/12/27 01:47:55;;;;;;;2.05;1.20;;;8.50;63.10;;;;;;5034176;28;20040;-72
2020/12/27 01:50:22;;;;;;;2.10;1.00;;;8.40;63.10;;;;;;5034304;28;20021;-70
2020/12/27 01:52:48;;;;;;;2.33;1.20;;;8.30;63.00;;;;;;5033702;28;20100;-70
2020/12/27 01:55:15;;;;;;;2.00;1.10;;;8.30;63.50;;;;;;5015784;28;20386;-70
2020/12/27 01:57:52;;;;;;;2.90;1.20;;;8.40;63.50;;;;;;5033304;28;20037;-72
2020/12/27 02:00:19;;;;;;;1.98;1.00;;;8.40;63.20;;;;;;5033602;28;20025;-73
2020/12/27 02:02:44;;;;;;;1.65;1.02;;;8.40;63.10;;;;;;5033448;28;20018;-73
2020/12/27 02:05:12;;;;;;;3.35;1.35;;;8.30;63.30;;;;;;5033639;28;20032;-71
2020/12/27 02:07:38;;;;;;;1.40;1.10;;;8.30;63.30;;;;;;5034497;28;20369;-71
2020/12/27 02:10:04;;;;;;;4.05;1.15;;;8.30;63.30;;;;;;5033211;28;20474;-72
2020/12/27 02:12:30;;;;;;;1.83;1.25;;;8.30;62.80;;;;;;5033406;28;20116;-73
2020/12/27 02:14:55;;;;;;;3.10;1.02;;;8.30;63.00;;;;;;5037567;28;20105;-70
2020/12/27 02:17:21;;;;;;;1.70;1.00;;;8.30;63.00;;;;;;5037266;28;20030;-71
2020/12/27 02:19:47;;;;;;;2.22;1.20;;;8.40;62.90;;;;;;5037173;28;20494;-70
2020/12/27 02:22:13;;;;;;;2.92;1.10;;;8.50;62.90;;;;;;5037283;28;20445;-72
2020/12/27 02:24:38;;;;;;;1.85;1.17;;;8.50;62.50;;;;;;5037447;28;20037;-73
2020/12/27 02:27:05;;;;;;;2.53;1.20;;;8.40;62.90;;;;;;5037251;28;20033;-70
2020/12/27 02:29:35;;;;;;;3.00;0.80;;;8.50;62.90;;;;;;5036801;28;20068;-70
2020/12/27 02:32:01;;;;;;;3.35;1.10;;;8.50;62.50;;;;;;5037190;28;20025;-74
2020/12/27 02:34:27;;;;;;;1.92;1.00;;;8.50;62.40;;;;;;5036914;28;20387;-70
2020/12/27 02:36:54;;;;;;;3.40;1.30;;;8.40;62.60;;;;;;5019281;28;20478;-72
2020/12/27 02:39:21;;;;;;;1.63;0.98;;;8.40;63.10;;;;;;5036794;28;20033;-72
2020/12/27 02:41:53;;;;;;;3.60;1.30;;;8.40;62.80;;;;;;5037334;28;20060;-70
2020/12/27 02:44:19;;;;;;;1.30;1.00;;;8.40;62.90;;;;;;5036718;28;20026;-71
2020/12/27 02:46:45;;;;;;;3.03;1.10;;;8.40;62.90;;;;;;5019037;28;20379;-71
2020/12/27 02:49:11;;;;;;;2.65;0.90;;;8.40;62.60;;;;;;5036698;28;20096;-69
2020/12/27 02:51:37;;;;;;;2.65;1.13;;;8.40;62.70;;;;;;5036839;28;20091;-72
2020/12/27 02:54:03;;;;;;;1.63;0.90;;;8.30;62.50;;;;;;5036637;28;20072;-71
2020/12/27 02:56:29;;;;;;;1.30;0.95;;;8.40;62.60;;;;;;5036586;28;20379;-70
2020/12/27 02:58:57;;;;;;;3.20;0.90;;;8.30;62.40;;;;;;5036513;28;20041;-73
2020/12/27 03:01:24;;;;;;;2.55;1.10;;;8.40;62.60;;;;;;5036526;28;20482;-71
2020/12/27 03:03:49;;;;;;;2.55;0.98;;;8.40;62.40;;;;;;5036562;28;20080;-72
2020/12/27 03:06:15;;;;;;;1.85;1.00;;;8.40;62.30;;;;;;5036378;28;20025;-71
2020/12/27 03:08:41;;;;;;;1.85;0.90;;;8.40;62.40;;;;;;5036427;28;20449;-73
2020/12/27 03:11:07;;;;;;;2.88;1.10;;;8.50;62.60;;;;;;5036161;28;20140;-72
2020/12/27 03:13:34;;;;;;;1.77;0.90;;;8.40;62.20;;;;;;5036219;28;20512;-73
2020/12/27 03:16:02;;;;;;;1.83;1.00;;;8.40;62.40;;;;;;5036022;28;20029;-72
2020/12/27 03:18:28;;;;;;;1.52;0.90;;;8.40;62.40;;;;;;5036046;28;20071;-71
2020/12/27 03:20:54;;;;;;;1.83;0.90;;;8.40;62.20;;;;;;5036036;28;20112;-71
2020/12/27 03:23:20;;;;;;;2.28;1.00;;;8.30;62.40;;;;;;5036187;28;20164;-70
2020/12/27 03:25:46;;;;;;;1.65;1.08;;;8.30;62.80;;;;;;5017453;28;20435;-74
2020/12/27 03:28:11;;;;;;;1.85;0.95;;;8.40;62.80;;;;;;5035795;28;20064;-72
2020/12/27 03:30:37;;;;;;;2.42;1.10;;;8.40;62.60;;;;;;5035891;28;20029;-73
2020/12/27 03:33:03;;;;;;;1.58;0.98;;;8.40;62.40;;;;;;5036051;28;20104;-72
2020/12/27 03:35:29;;;;;;;1.60;0.98;;;8.40;62.40;;;;;;5036196;28;20474;-73
2020/12/27 03:37:54;;;;;;;2.95;0.98;;;8.30;62.50;;;;;;5035977;28;20045;-73
2020/12/27 03:40:21;;;;;;;1.30;0.95;;;8.20;62.60;;;;;;5035893;28;20382;-76
2020/12/27 03:42:46;;;;;;;1.48;0.90;;;8.20;62.90;;;;;;5035786;28;20503;-72
2020/12/27 03:45:12;;;;;;;1.95;1.00;;;8.10;62.90;;;;;;5035634;28;20052;-72
2020/12/27 03:47:38;;;;;;;2.38;1.15;;;8.10;63.20;;;;;;5035919;28;20057;-71
2020/12/27 03:50:04;;;;;;;2.22;1.30;;;8.00;63.10;;;;;;5035702;28;20231;-74
2020/12/27 03:52:30;;;;;;;0.88;0.70;;;8.00;63.40;;;;;;5036142;28;20086;-70
2020/12/27 03:54:56;;;;;;;3.35;1.23;;;8.00;63.50;;;;;;5035715;28;20072;-71
2020/12/27 03:57:21;;;;;;;2.47;1.30;;;8.00;63.50;;;;;;5034225;28;20419;-73
2020/12/27 03:59:47;;;;;;;2.15;1.35;;;8.00;63.60;;;;;;5035641;28;20476;-71
2020/12/27 04:02:13;;;;;;;2.30;1.40;;;8.00;63.40;;;;;;5035798;28;20048;-72
2020/12/27 04:04:39;;;;;;;3.80;1.95;;;8.10;63.80;;;;;;5036545;28;20375;-72
2020/12/27 04:07:04;;;;;;;2.92;1.30;;;8.10;63.70;;;;;;5035777;28;20536;-72
2020/12/27 04:09:30;;;;;;;2.97;1.23;;;8.10;63.80;;;;;;5035486;28;20037;-73
2020/12/27 04:11:56;;;;;;;3.30;1.25;;;8.20;63.90;;;;;;5035173;28;20030;-71
2020/12/27 04:14:21;;;;;;;2.65;1.15;;;8.30;63.50;;;;;;5035410;28;20025;-69
2020/12/27 04:16:47;;;;;;;3.10;1.20;;;8.40;63.10;;;;;;5035289;28;20501;-72
2020/12/27 04:19:13;;;;;;;2.58;1.30;;;8.40;62.80;;;;;;5034886;28;20048;-69
2020/12/27 04:21:42;;;;;;;1.77;1.05;;;8.40;62.80;;;;;;5034932;28;20179;-70
2020/12/27 04:24:08;;;;;;;2.25;1.10;;;8.30;62.70;;;;;;5035133;28;20068;-71
2020/12/27 04:26:33;;;;;;;2.67;1.10;;;8.40;62.90;;;;;;5035237;28;20057;-71
2020/12/27 04:28:59;;;;;;;2.10;1.20;;;8.30;62.90;;;;;;5034801;28;20049;-70
2020/12/27 04:31:25;;;;;;;2.67;1.30;;;8.30;62.90;;;;;;5034861;28;20159;-71
2020/12/27 04:33:54;;;;;;;3.08;1.38;;;8.30;63.10;;;;;;5034799;28;20025;-69
2020/12/27 04:36:20;;;;;;;4.78;1.13;;;8.40;63.10;;;;;;5033869;28;20486;-70
2020/12/27 04:38:47;;;;;;;3.58;1.08;;;8.40;62.90;;;;;;5034128;28;20403;-73
2020/12/27 04:41:14;;;;;;;4.18;1.20;;;8.40;62.90;;;;;;5034683;28;20080;-70
2020/12/27 04:43:41;;;;;;;2.70;1.33;;;8.40;63.00;;;;;;5034715;28;20120;-71
2020/12/27 04:46:10;;;;;;;2.75;1.20;;;8.40;62.70;;;;;;5034575;28;20031;-71
2020/12/27 04:48:38;;;;;;;2.40;1.10;;;8.40;62.80;;;;;;5034548;28;20040;-70
2020/12/27 04:51:06;;;;;;;3.05;1.40;;;8.30;63.10;;;;;;5034245;28;20040;-70
2020/12/27 04:53:33;;;;;;;2.60;1.20;;;8.30;62.90;;;;;;5034728;28;20425;-70
2020/12/27 04:56:01;;;;;;;2.85;1.13;;;8.30;63.20;;;;;;5034382;28;20608;-74
2020/12/27 04:58:28;;;;;;;2.80;1.48;;;8.30;63.40;;;;;;5034362;28;20120;-76
2020/12/27 05:00:55;;;;;;;1.85;1.10;;;8.30;63.10;;;;;;5034509;28;20045;-71
2020/12/27 05:03:21;;;;;;;1.98;1.30;;;8.30;63.40;;;;;;5034750;28;20033;-72
2020/12/27 05:05:50;;;;;;;2.75;1.30;;;8.40;63.40;;;;;;5034453;28;20055;-72
2020/12/27 05:08:16;;;;;;;2.05;1.15;;;8.30;63.20;;;;;;5034094;28;20025;-69
2020/12/27 05:10:43;;;;;;;3.65;1.33;;;8.20;63.40;;;;;;5033963;28;20029;-72
2020/12/27 05:13:09;;;;;;;1.92;1.00;;;8.10;63.60;;;;;;5034163;28;20032;-71
2020/12/27 05:15:39;;;;;;;4.13;1.38;;;8.10;64.00;;;;;;5034124;28;20550;-68
2020/12/27 05:18:06;;;;;;;1.85;1.02;;;8.10;63.90;;;;;;5034072;28;20027;-70
2020/12/27 05:20:32;;;;;;;3.13;1.40;;;8.20;63.90;;;;;;5033732;28;20116;-70
2020/12/27 05:23:05;;;;;;;2.65;1.35;;;8.30;63.60;;;;;;5033936;28;20046;-72
2020/12/27 05:25:32;;;;;;;3.42;1.10;;;8.20;63.50;;;;;;5033955;28;20036;-73
2020/12/27 05:28:06;;;;;;;2.58;1.27;;;8.30;63.40;;;;;;5033588;28;20053;-73
2020/12/27 05:30:32;;;;;;;1.90;1.20;;;8.20;63.70;;;;;;5033879;28;20032;-72
2020/12/27 05:32:57;;;;;;;4.03;1.50;;;8.20;63.90;;;;;;5033765;28;20389;-71
2020/12/27 05:35:23;;;;;;;3.63;1.38;;;8.20;63.30;;;;;;5033913;28;20056;-73
2020/12/27 05:37:52;;;;;;;1.92;1.30;;;8.10;63.80;;;;;;5033913;28;20041;-72
2020/12/27 05:40:19;;;;;;;3.53;1.38;;;8.00;63.90;;;;;;5033897;28;20026;-72
2020/12/27 05:42:46;;;;;;;3.20;1.45;;;8.10;64.50;;;;;;5033972;28;20030;-74
2020/12/27 05:45:20;;;;;;;2.22;1.10;;;8.10;64.40;;;;;;5034074;28;20052;-71
2020/12/27 05:47:47;;;;;;;2.00;1.30;;;8.00;64.10;;;;;;5033440;28;20025;-70
2020/12/27 05:50:18;;;;;;;2.80;1.55;;;8.00;64.20;;;;;;5034370;28;20048;-71
2020/12/27 05:52:49;;;;;;;2.58;1.38;;;8.00;64.40;;;;;;5034499;28;20063;-71
2020/12/27 05:55:21;;;;;;;2.40;1.40;;;8.00;64.50;;;;;;5034625;28;20026;-70
2020/12/27 05:57:52;;;;;;;2.20;1.40;;;8.00;64.30;;;;;;5034014;28;20080;-72
2020/12/27 06:00:23;;;;;;;5.13;1.60;;;8.00;64.30;;;;;;4999429;28;20021;-73
2020/12/27 06:03:01;;;;;;;3.53;1.45;;;7.90;64.10;;;;;;5033947;28;20033;-70
2020/12/27 06:05:56;;;;;;;3.42;1.70;;;7.90;64.30;;;;;;5035002;28;20022;-69
2020/12/27 06:08:27;;;;;;;4.65;1.70;;;7.90;64.50;;;;;;5026119;28;20440;-71
2020/12/27 06:11:16;;;;;;;3.17;1.50;;;8.00;64.50;;;;;;5034345;28;20143;-71
2020/12/27 06:14:09;;;;;;;2.40;1.40;;;8.00;64.40;;;;;;5021710;28;20037;-71
2020/12/27 06:16:51;;;;;;;4.97;1.60;;;8.00;64.40;;;;;;5033605;28;20036;-70
2020/12/27 06:19:26;;;;;;;7.57;2.05;;;8.00;64.40;;;;;;5033463;28;20037;-71
2020/12/27 06:22:10;;;;;;;4.03;1.50;;;8.00;64.20;;;;;;5033482;28;20064;-71
2020/12/27 06:24:37;;;;;;;5.10;1.40;;;7.80;64.30;;;;;;5016278;28;20040;-70
2020/12/27 06:27:06;;;;;;;3.13;1.48;;;7.80;64.50;;;;;;5033273;28;20021;-70
2020/12/27 06:29:32;;;;;;;4.30;1.80;;;7.80;64.80;;;;;;5032964;28;20132;-71
2020/12/27 06:31:59;;;;;;;2.95;1.45;;;7.90;64.90;;;;;;5033190;28;20057;-71
2020/12/27 06:34:25;;;;;;;3.40;1.50;;;7.90;64.50;;;;;;5033039;28;20033;-69
2020/12/27 06:36:51;;;;;;;2.85;1.65;;;8.00;64.70;;;;;;5033118;28;20378;-72
2020/12/27 06:39:27;;;;;;;3.70;1.65;;;8.00;64.50;;;;;;5032903;28;20042;-72
2020/12/27 06:42:13;;;;;;;3.10;1.70;;;7.90;64.30;;;;;;5033467;28;20371;-71
2020/12/27 06:44:47;;;;;;;3.22;1.60;;;7.90;64.20;;;;;;5033631;28;20914;-71
2020/12/27 06:47:13;;;;;;;;;;;8.00;64.50;;;;;;5034037;28;20032;-72
2020/12/27 06:49:39;;;;;;;3.83;1.55;;;8.10;64.40;;;;;;5033327;28;20362;-72
2020/12/27 06:52:22;;;;;;;3.65;1.65;;;8.00;64.00;;;;;;5032880;28;20382;-72
2020/12/27 06:54:52;;;;;;;2.95;1.70;;;7.90;65.00;;;;;;5032977;28;20029;-73
2020/12/27 06:57:45;;;;;;;3.90;1.80;;;7.90;64.30;;;;;;5032855;28;20022;-72
2020/12/27 07:00:18;;;;;;;3.28;1.83;;;7.80;64.80;;;;;;5030501;28;20049;-72
2020/12/27 07:02:44;;;;;;;3.83;2.00;;;7.80;64.60;;;;;;5036888;28;20044;-73
2020/12/27 07:05:11;;;;;;;3.38;1.75;;;7.80;64.60;;;;;;5036583;28;20394;-72
2020/12/27 07:07:46;;;;;;;4.75;1.90;;;7.80;64.90;;;;;;5036609;28;20032;-71
2020/12/27 07:10:15;;;;;;;4.07;1.80;;;7.80;64.90;;;;;;5034849;28;20029;-69
2020/12/27 07:12:42;;;;;;;4.07;1.90;;;7.90;65.00;;;;;;5036269;28;20040;-72
2020/12/27 07:15:11;;;;;;;4.10;1.98;;;7.90;64.90;;;;;;5036426;28;20096;-72
2020/12/27 07:17:37;;;;;;;3.75;1.75;;;8.00;64.70;;;;;;5036295;28;20375;-71
2020/12/27 07:20:15;;;;;;;9.48;2.40;;;8.00;64.70;;;;;;5036117;28;20064;-72
2020/12/27 07:22:42;;;;;;;4.45;1.98;;;8.10;64.70;;;;;;5036170;28;20477;-70
2020/12/27 07:25:15;;;;;;;4.68;2.30;;;8.10;64.40;;;;;;5035852;28;20033;-70
2020/12/27 07:27:42;;;;;;;4.60;2.30;;;8.10;64.40;;;;;;5035937;28;20049;-72
2020/12/27 07:30:13;;;;;;;4.95;2.33;;;8.00;64.50;;;;;;5035802;28;20504;-74
2020/12/27 07:32:42;;;;;;;4.15;2.33;;;8.00;64.70;;;;;;5035956;28;20120;-73
2020/12/27 07:35:11;;;;;;;4.30;2.00;;;8.00;64.80;;;;;;5035759;28;20025;-71
2020/12/27 07:37:42;;;;;;;4.90;2.00;;;8.00;64.70;;;;;;5035926;28;20112;-72
2020/12/27 07:40:11;;;;;;;4.57;2.13;;;7.90;64.60;;;;;;5035951;28;20065;-73
2020/12/27 07:42:37;;;;;;;4.72;2.17;;;8.00;64.90;;;;;;5035998;28;20462;-73
2020/12/27 07:45:13;;;;;;;4.57;2.25;;;8.00;64.60;;;;;;5035627;28;20029;-72
2020/12/27 07:47:40;;;;;;;5.28;2.42;;;8.00;64.50;;;;;;5035412;28;20033;-71
2020/12/27 07:50:14;;;;;;;4.22;2.03;;;8.10;64.60;;;;;;5035695;28;20025;-71
2020/12/27 07:52:44;;;;;;;5.03;2.63;;;8.20;64.70;;;;;;5035638;28;20021;-72
2020/12/27 07:55:10;;;;;;;4.80;2.08;;;8.20;64.30;;;;;;5035652;28;20360;-70
2020/12/27 07:57:36;;;;;;;5.95;2.25;;;8.20;64.60;;;;;;5035293;28;20057;-71
2020/12/27 08:00:06;;;;;;;4.50;2.40;;;8.20;64.00;;;;;;5035392;28;20025;-73
2020/12/27 08:02:33;;;;;;;5.30;2.58;;;8.20;64.10;;;;;;5035301;28;20033;-74
2020/12/27 08:05:02;;;;;;;4.60;2.50;;;8.20;64.10;;;;;;5035698;28;20501;-71
2020/12/27 08:07:28;;;;;;;5.22;2.58;;;8.20;63.70;;;;;;5035159;28;20391;-74
2020/12/27 08:09:54;;;;;;;6.68;3.00;;;8.20;64.00;;;;;;5035219;28;20026;-73
2020/12/27 08:12:20;;;;;;;4.93;2.58;;;8.10;63.60;;;;;;5034772;28;20477;-73
2020/12/27 08:14:46;;;;;;;6.68;2.83;;;8.10;63.80;;;;;;5035016;28;20030;-71
2020/12/27 08:17:15;;;;;;;5.47;2.72;;;8.10;63.90;;;;;;5035119;28;20034;-72
2020/12/27 08:19:41;;;;;;;5.25;2.70;;;8.10;64.10;;;;;;5034709;28;20040;-72
2020/12/27 08:22:07;;;;;;;4.60;2.30;;;8.20;63.90;;;;;;5034974;28;20033;-73
2020/12/27 08:24:33;;;;;;;5.15;1.95;;;8.20;63.40;;;;;;5034626;28;20030;-74
2020/12/27 08:26:59;;;;;;;5.43;2.17;;;8.10;63.20;;;;;;5034873;28;20533;-72
2020/12/27 08:29:25;;;;;;;5.28;2.65;;;8.20;62.40;;;;;;5034400;28;20046;-73
2020/12/27 08:31:54;;;;;;;4.93;2.22;;;8.20;62.90;;;;;;5034703;28;20055;-72
2020/12/27 08:34:23;;;;;;;5.32;1.95;;;8.20;62.50;;;;;;5034570;28;20061;-72
2020/12/27 08:36:54;;;;;;;5.78;2.25;;;8.20;62.60;;;;;;5034614;28;20471;-75
2020/12/27 08:39:41;;;;;;;4.28;2.00;;;8.20;62.20;;;;;;5034572;28;20121;-73
2020/12/27 08:42:23;;;;;;;6.97;2.33;;;8.20;62.30;;;;;;5034901;28;20029;-71
2020/12/27 08:44:57;;;;;;;4.80;2.03;;;8.30;62.10;;;;;;5034457;28;20034;-73
2020/12/27 08:47:46;;;;;;;6.03;2.72;;;8.40;62.00;;;;;;5034421;28;20021;-74
2020/12/27 08:50:24;;;;;;;4.50;2.17;;;8.40;61.70;;;;;;5021981;28;20116;-71
2020/12/27 08:52:58;;;;;;;3.47;1.63;;;8.40;61.60;;;;;;5034460;28;20036;-71
2020/12/27 08:55:27;;;;;;;4.60;2.10;;;8.50;61.80;;;;;;5034241;28;20064;-71
2020/12/27 08:57:54;;;;;;;4.22;1.98;;;8.50;61.20;;;;;;5034384;28;20033;-71
2020/12/27 09:00:20;;;;;;;6.25;2.25;;;8.50;61.10;;;;;;5034014;28;20061;-72
2020/12/27 09:02:56;;;;;;;7.43;2.53;;;8.60;61.40;;;;;;5034181;28;20026;-70
2020/12/27 09:05:26;;;;;;;6.60;2.30;;;8.70;61.00;;;;;;5016358;28;20109;-73
2020/12/27 09:07:52;;;;;;;3.35;1.80;;;8.80;61.10;;;;;;5034289;28;20029;-73
2020/12/27 09:10:20;;;;;;;5.07;2.22;;;8.80;60.80;;;;;;5033913;28;20022;-70
2020/12/27 09:12:59;;;;;;;5.38;2.28;;;8.80;60.70;;;;;;5033913;28;20068;-74
2020/12/27 09:15:34;;;;;;;5.55;1.90;;;8.90;60.90;;;;;;5033765;28;20022;-73
2020/12/27 09:18:04;;;;;;;5.13;2.15;;;8.90;60.80;;;;;;5033900;28;20042;-72
2020/12/27 09:20:32;;;;;;;5.20;2.30;;;9.00;60.00;;;;;;5033663;28;20033;-71
2020/12/27 09:22:59;;;;;;;5.90;2.17;;;9.00;60.60;;;;;;5033624;28;20075;-71
2020/12/27 09:25:25;;;;;;;6.20;2.15;;;9.00;59.10;;;;;;5034105;28;20023;-72
2020/12/27 09:27:53;;;;;;;3.72;2.08;;;8.90;59.10;;;;;;5033943;28;20544;-73
2020/12/27 09:30:25;;;;;;;4.57;1.77;;;9.00;59.50;;;;;;5034009;28;20023;-69
2020/12/27 09:32:59;;;;;;;5.07;1.98;;;9.00;59.00;;;;;;5033793;28;20501;-74
2020/12/27 09:35:24;;;;;;;;;;;9.10;59.30;;;;;;5034269;28;20095;-72
2020/12/27 09:37:51;;;;;;;7.65;2.15;;;9.20;58.80;;;;;;5033719;28;19976;-73
2020/12/27 09:40:18;;;;;;;5.70;2.40;;;9.20;58.80;;;;;;5034300;28;20029;-73
2020/12/27 09:42:45;;;;;;;6.18;2.70;;;9.30;59.00;;;;;;5033984;28;20059;-73
2020/12/27 09:45:18;;;;;;;7.93;2.88;;;9.40;58.70;;;;;;5033443;28;20029;-72
2020/12/27 09:47:53;;;;;;;7.13;2.30;;;9.40;58.60;;;;;;5033505;28;20048;-72
2020/12/27 09:50:31;;;;;;;5.70;2.35;;;9.50;59.00;;;;;;5033240;28;20475;-72
2020/12/27 09:52:57;;;;;;;4.57;1.92;;;9.50;58.60;;;;;;5033835;28;20026;-72
2020/12/27 09:55:23;;;;;;;5.80;2.17;;;9.60;58.00;;;;;;5033182;28;20049;-70
2020/12/27 09:57:49;;;;;;;4.85;2.10;;;9.70;57.70;;;;;;5033342;28;20487;-72
2020/12/27 10:00:15;;;;;;;7.20;2.50;;;9.90;57.40;;;;;;5032980;28;20026;-73
2020/12/27 10:02:41;;;;;;;9.68;3.13;;;9.90;57.20;;;;;;5033205;28;20433;-71
2020/12/27 10:05:07;;;;;;;7.03;2.25;;;9.90;57.00;;;;;;5015756;28;20025;-70
2020/12/27 10:07:33;;;;;;;4.03;1.95;;;10.00;55.60;;;;;;5033160;28;20057;-69
2020/12/27 10:09:59;;;;;;;4.15;1.98;;;10.00;55.60;;;;;;5033301;28;20061;-72
2020/12/27 10:12:25;;;;;;;4.65;2.08;;;10.00;55.50;;;;;;5033060;28;20382;-71
2020/12/27 10:14:50;;;;;;;9.70;2.50;;;10.00;55.80;;;;;;5033384;28;20026;-70
2020/12/27 10:17:16;;;;;;;4.05;1.90;;;10.10;55.50;;;;;;5033012;28;20080;-70
2020/12/27 10:19:42;;;;;;;6.15;2.70;;;10.10;55.50;;;;;;5033089;28;20040;-71
2020/12/27 10:22:08;;;;;;;6.43;2.10;;;10.20;55.50;;;;;;5033027;28;20411;-71
2020/12/27 10:24:34;;;;;;;5.35;2.03;;;10.30;55.60;;;;;;5033131;28;20064;-70
2020/12/27 10:27:05;;;;;;;5.95;2.05;;;10.30;55.40;;;;;;5015266;28;20045;-70
2020/12/27 10:29:31;;;;;;;8.80;2.60;;;10.40;55.40;;;;;;5032842;28;20058;-70
2020/12/27 10:31:59;;;;;;;5.85;2.42;;;10.50;55.60;;;;;;5032851;28;20032;-72
2020/12/27 10:34:26;;;;;;;4.43;2.35;;;10.50;55.20;;;;;;5034243;28;20026;-72
2020/12/27 10:36:53;;;;;;;6.07;1.95;;;10.60;55.00;;;;;;5036914;28;20017;-73
2020/12/27 10:39:20;;;;;;;5.97;2.65;;;10.60;54.20;;;;;;5036589;28;20172;-71
2020/12/27 10:41:47;;;;;;;5.70;2.83;;;10.70;54.00;;;;;;5036753;28;20025;-71
2020/12/27 10:44:13;;;;;;;4.95;2.30;;;10.70;54.60;;;;;;5036671;28;20033;-72
2020/12/27 10:46:39;;;;;;;5.55;2.40;;;10.80;54.30;;;;;;5036686;28;20038;-73
2020/12/27 10:49:05;;;;;;;7.03;2.35;;;10.90;54.50;;;;;;5036554;28;20037;-72
2020/12/27 10:51:38;;;;;;;5.40;2.42;;;10.90;54.00;;;;;;5036909;28;20025;-70
2020/12/27 10:54:05;;;;;;;5.28;2.28;;;11.00;54.50;;;;;;5036628;28;20061;-72
2020/12/27 10:56:31;;;;;;;5.32;2.30;;;11.00;54.20;;;;;;5036453;28;20104;-70
2020/12/27 10:58:57;;;;;;;5.70;2.53;;;11.10;54.10;;;;;;5036290;28;20040;-70
2020/12/27 11:01:23;;;;;;;6.95;3.65;;;11.20;53.80;;;;;;5036057;28;20446;-72
2020/12/27 11:03:49;;;;;;;10.25;3.97;;;11.20;53.60;;;;;;5036652;28;20104;-72
2020/12/27 11:06:14;;;;;;;6.00;2.72;;;11.30;54.00;;;;;;5036377;28;20359;-71
2020/12/27 11:08:40;;;;;;;6.63;2.80;;;11.30;54.20;;;;;;5036042;28;20105;-71
2020/12/27 11:11:06;;;;;;;6.03;2.60;;;11.30;53.30;;;;;;5036091;28;20029;-73
2020/12/27 11:13:31;;;;;;;5.00;2.47;;;11.30;53.70;;;;;;5036284;28;20130;-70
2020/12/27 11:15:57;;;;;;;5.30;2.92;;;11.30;53.60;;;;;;5036459;28;20100;-70
2020/12/27 11:18:23;;;;;;;6.03;2.55;;;11.40;53.70;;;;;;5036055;28;20055;-70
2020/12/27 11:20:49;;;;;;;6.18;2.75;;;11.50;52.80;;;;;;5018102;28;20116;-71
2020/12/27 11:23:14;;;;;;;5.43;2.97;;;11.40;52.90;;;;;;5036093;28;20065;-70
2020/12/27 11:25:40;;;;;;;6.07;3.42;;;11.40;53.10;;;;;;5036144;28;20100;-70
2020/12/27 11:28:06;;;;;;;8.60;2.55;;;11.40;52.80;;;;;;5036188;28;20045;-71
2020/12/27 11:30:35;;;;;;;7.55;2.50;;;11.40;52.60;;;;;;5018309;28;20021;-72
2020/12/27 11:33:01;;;;;;;6.25;2.70;;;11.40;52.60;;;;;;5036211;28;20052;-70
2020/12/27 11:35:26;;;;;;;6.43;2.28;;;11.40;52.50;;;;;;5035996;28;20067;-72
2020/12/27 11:37:53;;;;;;;6.78;2.45;;;11.50;52.40;;;;;;5035629;28;20025;-72
2020/12/27 11:40:20;;;;;;;5.65;2.70;;;11.50;52.40;;;;;;5035840;28;20034;-70
2020/12/27 11:42:46;;;;;;;4.63;2.70;;;11.60;52.30;;;;;;5035730;28;20032;-70
2020/12/27 11:45:11;;;;;;;6.00;3.08;;;11.70;52.30;;;;;;5018005;28;20030;-73
2020/12/27 11:47:37;;;;;;;6.88;3.85;;;11.80;52.20;;;;;;5035132;28;20037;-74
2020/12/27 11:50:06;;;;;;;6.38;2.67;;;11.80;52.10;;;;;;5035452;28;20017;-75
2020/12/27 11:52:32;;;;;;;5.93;3.00;;;11.80;51.60;;;;;;5035594;28;20037;-73
2020/12/27 11:54:58;;;;;;;4.78;2.38;;;11.90;51.60;;;;;;5035342;28;20079;-73
2020/12/27 11:57:24;;;;;;;6.07;2.63;;;11.90;50.80;;;;;;5035268;28;20025;-74
2020/12/27 11:59:49;;;;;;;5.28;2.47;;;11.90;51.00;;;;;;5035438;28;20398;-73
2020/12/27 12:02:15;;;;;;;5.78;2.70;;;11.80;50.80;;;;;;5035488;28;20026;-75
2020/12/27 12:04:41;;;;;;;6.28;3.05;;;11.80;51.10;;;;;;5035208;28;20022;-73
2020/12/27 12:07:07;;;;;;;6.00;3.08;;;11.80;51.50;;;;;;5035482;28;20382;-75
2020/12/27 12:09:32;;;;;;;7.60;3.15;;;11.80;51.80;;;;;;5035075;28;20021;-74
2020/12/27 12:11:58;;;;;;;5.25;3.28;;;11.90;51.50;;;;;;5035063;28;20029;-74
2020/12/27 12:14:24;;;;;;;7.03;3.10;;;12.00;51.10;;;;;;5035136;28;20108;-74
2020/12/27 12:16:52;;;;;;;5.93;2.80;;;12.10;51.20;;;;;;5035470;28;20532;-74
2020/12/27 12:19:18;;;;;;;7.10;3.20;;;12.10;51.10;;;;;;5035167;28;20155;-75
2020/12/27 12:21:44;;;;;;;6.32;2.88;;;12.10;51.20;;;;;;5035116;28;20057;-74
2020/12/27 12:24:09;;;;;;;7.43;3.35;;;12.20;51.10;;;;;;5034935;28;20095;-72
2020/12/27 12:26:36;;;;;;;6.50;3.03;;;12.20;50.60;;;;;;5034877;28;20032;-73
2020/12/27 12:29:02;;;;;;;4.85;2.60;;;12.20;50.60;;;;;;5034358;28;20065;-74
2020/12/27 12:31:28;;;;;;;7.75;3.58;;;12.20;50.20;;;;;;5034962;28;20096;-76
2020/12/27 12:33:54;;;;;;;8.20;2.97;;;12.30;49.90;;;;;;5034826;28;20489;-72
2020/12/27 12:36:23;;;;;;;6.18;3.25;;;12.40;50.00;;;;;;5034821;28;20032;-73
2020/12/27 12:38:49;;;;;;;10.02;3.65;;;12.40;49.70;;;;;;5034532;28;20087;-70
2020/12/27 12:41:18;;;;;;;5.20;3.00;;;12.50;49.40;;;;;;5034657;28;20037;-71
2020/12/27 12:43:45;;;;;;;5.95;2.88;;;12.60;49.50;;;;;;5034702;28;20438;-71
2020/12/27 12:46:14;;;;;;;6.25;3.22;;;12.60;49.10;;;;;;5034574;28;20032;-74
2020/12/27 12:48:42;;;;;;;6.95;2.80;;;12.60;48.70;;;;;;5034455;28;20036;-71
2020/12/27 12:51:08;;;;;;;5.90;3.28;;;12.60;48.70;;;;;;5034256;28;20028;-69
2020/12/27 12:53:34;;;;;;;7.03;2.95;;;12.60;49.10;;;;;;5034395;28;20079;-71
2020/12/27 12:56:00;;;;;;;7.05;2.88;;;12.70;48.40;;;;;;5034143;28;20037;-73
2020/12/27 12:58:26;;;;;;;7.60;3.20;;;12.70;48.60;;;;;;5033416;28;20103;-69